Time;durP1;ratioP1;P1;durP2;ratioP2;P2;SDS_P1;SDS_P2;PMS_P1;PMS_P2;Temp;Humidity;BMP_temperature;BMP_pressure;BME280_temperature;BME280_humidity;BME280_pressure;Samples;Min_cycle;Max_cycle;Signal;HPM_P1;HPM_P2
2022/04/24 00:01:15;;;;;;;9.60;6.95;;;12.20;80.60;;;;;;1801152;80;21091;-59
2022/04/24 00:03:44;;;;;;;8.43;6.85;;;12.20;80.80;;;;;;1801332;80;21051;-59
2022/04/24 00:06:14;;;;;;;14.60;7.30;;;12.20;80.90;;;;;;1801190;80;21055;-59
2022/04/24 00:08:43;;;;;;;8.60;7.35;;;12.20;80.30;;;;;;1801157;80;21059;-59
2022/04/24 00:11:13;;;;;;;8.08;6.78;;;12.20;80.40;;;;;;1801267;80;21056;-59
2022/04/24 00:13:42;;;;;;;8.50;7.10;;;12.30;80.20;;;;;;1801203;79;21118;-59
2022/04/24 00:16:12;;;;;;;10.35;6.40;;;12.30;80.10;;;;;;1846533;78;21055;-59
2022/04/24 00:18:42;;;;;;;8.55;6.67;;;12.40;80.40;;;;;;1801166;80;21157;-60
2022/04/24 00:21:11;;;;;;;13.93;6.33;;;12.40;80.10;;;;;;1846447;77;21039;-59
2022/04/24 00:23:40;;;;;;;6.58;4.53;;;12.40;80.20;;;;;;1801292;80;21052;-59
2022/04/24 00:26:10;;;;;;;10.30;6.65;;;12.40;80.70;;;;;;1801230;80;21146;-59
2022/04/24 00:28:39;;;;;;;8.83;6.97;;;12.40;80.50;;;;;;1801272;80;21059;-59
2022/04/24 00:31:08;;;;;;;10.58;7.15;;;12.30;80.40;;;;;;1801126;80;21126;-59
2022/04/24 00:33:38;;;;;;;9.13;7.42;;;12.40;80.30;;;;;;1801129;80;21051;-58
2022/04/24 00:36:07;;;;;;;9.48;7.50;;;12.40;80.00;;;;;;1801191;80;21059;-59
2022/04/24 00:38:37;;;;;;;13.80;8.35;;;12.40;80.60;;;;;;1801128;80;21126;-59
2022/04/24 00:41:06;;;;;;;13.58;8.40;;;12.40;80.70;;;;;;1801340;80;21032;-59
2022/04/24 00:43:36;;;;;;;20.48;8.85;;;12.30;80.70;;;;;;1801191;80;21168;-59
2022/04/24 00:46:14;;;;;;;16.15;8.70;;;12.30;80.70;;;;;;1797812;79;21557;-59
2022/04/24 00:48:44;;;;;;;15.10;9.10;;;12.30;80.50;;;;;;1801440;80;21047;-59
2022/04/24 00:51:14;;;;;;;13.22;9.03;;;12.30;80.40;;;;;;1801138;80;21032;-59
2022/04/24 00:53:43;;;;;;;15.90;8.95;;;12.30;80.20;;;;;;1801161;80;21095;-59
2022/04/24 00:56:12;;;;;;;12.98;8.80;;;12.40;80.30;;;;;;1801123;80;21072;-59
2022/04/24 00:58:42;;;;;;;16.65;8.60;;;12.40;80.50;;;;;;1801222;80;21080;-59
2022/04/24 01:01:11;;;;;;;14.98;9.53;;;12.40;80.50;;;;;;1801155;80;21063;-59
2022/04/24 01:03:41;;;;;;;19.35;9.85;;;12.40;80.40;;;;;;1801291;80;21035;-59
2022/04/24 01:06:10;;;;;;;17.45;9.10;;;12.40;80.10;;;;;;1801211;80;21055;-59
2022/04/24 01:08:40;;;;;;;14.10;9.15;;;12.40;80.00;;;;;;1801240;80;21055;-59
2022/04/24 01:11:09;;;;;;;18.45;10.10;;;12.50;80.10;;;;;;1801206;80;21130;-59
2022/04/24 01:13:38;;;;;;;13.98;8.83;;;12.50;80.00;;;;;;1846402;77;21485;-59
2022/04/24 01:16:08;;;;;;;9.58;7.28;;;12.50;80.20;;;;;;1801236;80;21138;-59
2022/04/24 01:18:38;;;;;;;11.30;8.33;;;12.50;80.30;;;;;;1801190;79;21146;-59
2022/04/24 01:21:10;;;;;;;11.53;8.48;;;12.40;80.30;;;;;;1801252;80;21059;-59
2022/04/24 01:23:39;;;;;;;10.60;7.90;;;12.40;80.50;;;;;;1801238;79;21142;-59
2022/04/24 01:26:09;;;;;;;12.03;7.90;;;12.40;80.20;;;;;;1801225;80;21118;-59
2022/04/24 01:28:38;;;;;;;11.30;7.22;;;12.40;80.10;;;;;;1801210;78;21063;-59
2022/04/24 01:31:07;;;;;;;11.55;7.80;;;12.40;80.10;;;;;;1801114;80;21080;-59
2022/04/24 01:33:37;;;;;;;12.98;8.30;;;12.40;80.00;;;;;;1801242;80;21063;-59
2022/04/24 01:36:07;;;;;;;9.68;7.92;;;12.40;80.20;;;;;;1801216;80;21126;-59
2022/04/24 01:38:36;;;;;;;10.05;7.80;;;12.40;79.90;;;;;;1801097;80;21111;-59
2022/04/24 01:41:05;;;;;;;13.32;8.13;;;12.40;80.20;;;;;;1801106;80;21052;-59
2022/04/24 01:43:36;;;;;;;12.33;8.83;;;12.30;80.40;;;;;;1801223;80;21052;-59
2022/04/24 01:46:06;;;;;;;20.32;8.98;;;12.30;80.40;;;;;;1801221;80;21071;-59
2022/04/24 01:48:36;;;;;;;15.70;9.03;;;12.30;80.50;;;;;;1801213;80;21167;-59
2022/04/24 01:51:07;;;;;;;10.45;8.33;;;12.30;80.20;;;;;;1801219;80;21111;-59
2022/04/24 01:53:37;;;;;;;14.10;8.45;;;12.30;80.30;;;;;;1801255;80;21228;-59
2022/04/24 01:56:07;;;;;;;15.05;9.95;;;12.30;80.20;;;;;;1801100;80;21204;-59
2022/04/24 01:58:37;;;;;;;15.10;9.40;;;12.30;80.20;;;;;;1801055;80;21129;-59
2022/04/24 02:01:07;;;;;;;15.15;8.70;;;12.30;80.20;;;;;;1801056;79;21138;-59
2022/04/24 02:03:37;;;;;;;21.27;10.15;;;12.30;80.40;;;;;;1801091;80;21056;-59
2022/04/24 02:06:07;;;;;;;16.32;9.38;;;12.30;80.30;;;;;;1846455;78;21118;-59
2022/04/24 02:08:36;;;;;;;17.37;9.38;;;12.30;80.30;;;;;;1846476;77;21474;-59
2022/04/24 02:11:09;;;;;;;14.13;9.18;;;12.30;80.20;;;;;;1801199;79;21123;-59
2022/04/24 02:13:38;;;;;;;12.80;8.15;;;12.30;80.10;;;;;;1801079;80;21064;-59
2022/04/24 02:16:08;;;;;;;12.63;7.75;;;12.40;80.20;;;;;;1801195;80;21052;-59
2022/04/24 02:18:37;;;;;;;11.35;8.25;;;12.40;80.10;;;;;;1801173;79;21063;-59
2022/04/24 02:21:06;;;;;;;14.33;8.58;;;12.40;80.00;;;;;;1801103;80;21063;-59
2022/04/24 02:23:36;;;;;;;19.32;8.78;;;12.40;80.10;;;;;;1801203;80;21505;-59
2022/04/24 02:26:05;;;;;;;9.78;7.20;;;12.40;80.10;;;;;;1801141;79;21130;-59
2022/04/24 02:28:35;;;;;;;19.27;7.78;;;12.50;80.10;;;;;;1817219;77;21063;-59
2022/04/24 02:31:04;;;;;;;18.62;8.28;;;12.40;80.00;;;;;;1823957;79;21055;-59
2022/04/24 02:33:34;;;;;;;10.58;7.12;;;12.50;80.20;;;;;;1823987;79;21027;-59
2022/04/24 02:36:04;;;;;;;10.93;7.40;;;12.50;80.00;;;;;;1823956;77;21137;-59
2022/04/24 02:38:33;;;;;;;12.80;7.90;;;12.50;80.00;;;;;;1823924;79;21063;-59
2022/04/24 02:41:02;;;;;;;11.63;7.53;;;12.50;80.00;;;;;;1823949;79;21059;-59
2022/04/24 02:43:42;;;;;;;14.10;8.08;;;12.50;80.10;;;;;;1823928;79;21494;-59
2022/04/24 02:46:14;;;;;;;18.32;8.28;;;12.50;80.20;;;;;;1888950;75;21168;-59
2022/04/24 02:48:44;;;;;;;11.43;6.70;;;12.50;80.30;;;;;;1818822;77;21041;-59
2022/04/24 02:51:13;;;;;;;9.10;7.08;;;12.50;80.30;;;;;;1895487;74;21030;-59
2022/04/24 02:53:42;;;;;;;16.42;7.40;;;12.50;80.40;;;;;;1818803;79;21092;-59
2022/04/24 02:56:11;;;;;;;9.00;6.75;;;12.50;80.50;;;;;;1895497;76;21033;-59
2022/04/24 02:58:44;;;;;;;12.13;6.83;;;12.50;80.30;;;;;;1818659;79;21041;-59
2022/04/24 03:01:12;;;;;;;10.03;7.53;;;12.50;80.30;;;;;;1895456;75;21030;-59
2022/04/24 03:03:42;;;;;;;11.45;6.70;;;12.50;80.30;;;;;;1818781;77;21013;-60
2022/04/24 03:06:12;;;;;;;12.58;7.60;;;12.40;80.40;;;;;;1895514;76;21095;-59
2022/04/24 03:08:41;;;;;;;9.83;7.50;;;12.40;80.50;;;;;;1818697;78;21127;-59
2022/04/24 03:11:11;;;;;;;17.98;7.87;;;12.40;80.40;;;;;;1895594;76;21124;-59
2022/04/24 03:13:40;;;;;;;7.08;6.37;;;12.40;80.30;;;;;;1818687;79;21013;-59
2022/04/24 03:16:10;;;;;;;10.85;6.83;;;12.40;80.20;;;;;;1895659;75;21103;-59
2022/04/24 03:18:39;;;;;;;11.88;7.05;;;12.50;80.10;;;;;;1818657;78;21049;-59
2022/04/24 03:21:08;;;;;;;8.60;7.20;;;12.50;80.00;;;;;;1895593;74;21037;-59
2022/04/24 03:23:38;;;;;;;11.63;6.80;;;12.50;79.90;;;;;;1818797;77;21037;-60
2022/04/24 03:26:08;;;;;;;9.35;6.58;;;12.50;79.90;;;;;;1895599;74;21026;-60
2022/04/24 03:28:37;;;;;;;9.15;6.87;;;12.50;79.90;;;;;;1818770;77;21115;-60
2022/04/24 03:31:07;;;;;;;10.95;7.20;;;12.50;79.90;;;;;;1895654;76;21029;-59
2022/04/24 03:33:36;;;;;;;11.30;7.28;;;12.50;79.80;;;;;;1818690;77;21045;-59
2022/04/24 03:36:06;;;;;;;8.00;6.62;;;12.50;80.00;;;;;;1895405;75;21109;-59
2022/04/24 03:38:35;;;;;;;10.20;6.95;;;12.50;80.00;;;;;;1818663;78;21044;-60
2022/04/24 03:41:04;;;;;;;11.33;7.90;;;12.50;80.00;;;;;;1895435;74;21445;-60
2022/04/24 03:43:34;;;;;;;14.78;9.23;;;12.50;80.10;;;;;;1818706;79;21132;-59
2022/04/24 03:46:05;;;;;;;12.60;7.95;;;12.50;80.20;;;;;;1919488;73;21130;-60
2022/04/24 03:48:34;;;;;;;13.25;9.18;;;12.50;80.30;;;;;;1933930;74;21014;-60
2022/04/24 03:51:04;;;;;;;14.40;7.97;;;12.50;80.40;;;;;;1933880;74;21060;-60
2022/04/24 03:53:33;;;;;;;11.22;8.38;;;12.50;80.40;;;;;;1933896;74;21076;-60
2022/04/24 03:56:02;;;;;;;21.68;11.97;;;12.50;80.50;;;;;;1933990;74;21029;-60
2022/04/24 03:58:32;;;;;;;17.32;11.15;;;12.50;80.70;;;;;;1934054;74;21087;-60
2022/04/24 04:01:01;;;;;;;14.80;10.75;;;12.50;80.70;;;;;;1934009;74;21033;-60
2022/04/24 04:03:30;;;;;;;20.05;7.72;;;12.50;80.90;;;;;;1934035;74;21064;-60
2022/04/24 04:05:59;;;;;;;10.05;7.30;;;12.50;80.90;;;;;;1934193;74;21091;-60
2022/04/24 04:08:29;;;;;;;10.15;6.65;;;12.50;80.90;;;;;;1934175;74;21021;-60
2022/04/24 04:10:59;;;;;;;12.13;7.67;;;12.50;81.00;;;;;;1934017;74;21096;-60
2022/04/24 04:13:29;;;;;;;12.35;7.97;;;12.50;81.00;;;;;;1934249;74;21053;-60
2022/04/24 04:15:58;;;;;;;11.12;7.47;;;12.60;81.20;;;;;;1934009;74;21099;-60
2022/04/24 04:18:28;;;;;;;13.00;8.33;;;12.70;81.20;;;;;;1933967;74;21025;-60
2022/04/24 04:20:57;;;;;;;66.45;12.70;;;12.70;81.10;;;;;;1934155;74;21037;-60
2022/04/24 04:23:27;;;;;;;29.23;9.15;;;12.80;81.10;;;;;;1934214;74;21026;-60
2022/04/24 04:25:56;;;;;;;16.17;7.80;;;12.90;80.90;;;;;;1934121;74;21091;-60
2022/04/24 04:28:25;;;;;;;20.92;7.75;;;13.00;80.80;;;;;;1934216;74;21026;-61
2022/04/24 04:30:55;;;;;;;14.90;8.58;;;13.10;80.60;;;;;;1934159;74;21060;-60
2022/04/24 04:33:24;;;;;;;13.88;8.05;;;13.20;80.40;;;;;;1933970;74;21162;-60
2022/04/24 04:35:54;;;;;;;13.58;8.20;;;13.30;80.00;;;;;;1933957;74;21068;-60
2022/04/24 04:38:23;;;;;;;22.25;9.28;;;13.40;79.80;;;;;;1934039;74;21018;-60
2022/04/24 04:40:53;;;;;;;14.40;8.68;;;13.40;79.60;;;;;;1934077;74;21017;-60
2022/04/24 04:43:22;;;;;;;17.35;9.18;;;13.50;79.50;;;;;;1934026;74;21071;-60
2022/04/24 04:45:52;;;;;;;15.32;9.93;;;13.50;79.40;;;;;;1931041;73;21054;-60
2022/04/24 04:48:22;;;;;;;21.68;10.98;;;13.50;79.40;;;;;;1924085;74;21041;-60
2022/04/24 04:50:52;;;;;;;15.68;10.00;;;13.60;79.30;;;;;;1923221;74;20994;-60
2022/04/24 04:53:21;;;;;;;21.27;9.95;;;13.60;79.10;;;;;;1924117;73;21026;-60
2022/04/24 04:55:51;;;;;;;11.75;7.60;;;13.60;79.00;;;;;;1924036;74;20999;-60
2022/04/24 04:58:20;;;;;;;11.22;7.42;;;13.60;78.90;;;;;;1923891;73;21022;-60
2022/04/24 05:00:50;;;;;;;11.85;8.03;;;13.60;78.60;;;;;;1924090;73;20994;-60
2022/04/24 05:03:19;;;;;;;9.90;8.05;;;13.70;78.40;;;;;;1924029;74;21026;-60
2022/04/24 05:05:48;;;;;;;10.25;7.25;;;13.70;78.40;;;;;;1923982;74;20999;-60
2022/04/24 05:08:17;;;;;;;11.30;6.70;;;13.80;78.20;;;;;;1924074;74;21026;-60
2022/04/24 05:10:47;;;;;;;18.42;8.18;;;13.80;78.10;;;;;;1924013;74;21018;-62
2022/04/24 05:13:16;;;;;;;13.70;8.15;;;13.90;77.80;;;;;;1924014;74;21022;-60
2022/04/24 05:15:46;;;;;;;26.10;8.88;;;13.90;77.60;;;;;;1923984;74;21030;-60
2022/04/24 05:18:15;;;;;;;23.40;10.60;;;14.00;77.70;;;;;;1924013;73;21111;-60
2022/04/24 05:20:45;;;;;;;18.25;9.28;;;14.00;77.70;;;;;;1923937;74;21022;-61
2022/04/24 05:23:14;;;;;;;19.45;10.48;;;14.00;77.30;;;;;;1923916;73;21076;-60
2022/04/24 05:25:44;;;;;;;18.20;10.75;;;14.10;77.00;;;;;;1923869;74;21159;-60
2022/04/24 05:28:24;;;;;;;23.87;10.10;;;14.10;77.00;;;;;;1923972;74;21026;-60
2022/04/24 05:31:02;;;;;;;19.40;8.05;;;14.20;77.00;;;;;;1846461;76;21125;-60
2022/04/24 05:33:31;;;;;;;19.87;8.60;;;14.30;77.00;;;;;;1926448;72;21005;-60
2022/04/24 05:36:00;;;;;;;12.55;7.20;;;14.30;76.90;;;;;;1926365;74;21033;-60
2022/04/24 05:38:30;;;;;;;16.95;7.17;;;14.50;77.00;;;;;;1926275;74;21029;-60
2022/04/24 05:40:59;;;;;;;20.25;9.23;;;14.50;77.00;;;;;;1926198;74;21103;-60
2022/04/24 05:43:29;;;;;;;45.73;24.95;;;14.60;76.70;;;;;;1926336;73;21017;-60
2022/04/24 05:45:58;;;;;;;51.80;20.65;;;14.70;76.50;;;;;;1926219;73;21060;-60
2022/04/24 05:48:28;;;;;;;65.28;25.12;;;14.80;76.10;;;;;;1926181;74;20993;-60
2022/04/24 05:50:57;;;;;;;38.30;15.18;;;14.90;75.60;;;;;;1926252;74;21033;-60
2022/04/24 05:53:26;;;;;;;49.00;17.52;;;14.90;75.40;;;;;;1926281;74;21033;-60
2022/04/24 05:55:57;;;;;;;29.67;12.10;;;14.90;75.20;;;;;;1926129;72;21094;-61
2022/04/24 05:58:26;;;;;;;30.00;13.95;;;15.00;75.00;;;;;;1926077;74;21049;-60
2022/04/24 06:00:55;;;;;;;31.25;14.83;;;15.10;75.00;;;;;;1926337;74;21174;-60
2022/04/24 06:03:25;;;;;;;30.48;14.38;;;15.20;74.80;;;;;;1926323;74;21158;-60
2022/04/24 06:05:54;;;;;;;26.77;13.22;;;15.30;74.50;;;;;;1926408;74;21111;-60
2022/04/24 06:08:24;;;;;;;40.70;15.68;;;15.40;74.60;;;;;;1926480;74;21028;-60
2022/04/24 06:10:53;;;;;;;29.30;14.30;;;15.60;74.60;;;;;;1926354;74;21033;-60
2022/04/24 06:13:22;;;;;;;32.70;15.13;;;15.80;74.00;;;;;;1926223;73;21107;-60
2022/04/24 06:15:55;;;;;;;23.73;12.78;;;16.00;73.70;;;;;;1926285;74;21037;-61
2022/04/24 06:18:23;;;;;;;29.32;13.70;;;16.20;72.80;;;;;;1925936;74;21128;-60
2022/04/24 06:20:52;;;;;;;24.52;11.20;;;16.30;72.80;;;;;;1926345;73;21091;-60
2022/04/24 06:23:24;;;;;;;19.70;11.15;;;16.40;72.50;;;;;;1926391;74;21048;-60
2022/04/24 06:25:53;;;;;;;21.25;10.93;;;16.50;72.30;;;;;;1925884;73;21515;-60
2022/04/24 06:31:01;;;;;;;25.62;10.78;;;16.70;70.90;;;;;;1926150;73;21127;-60
2022/04/24 06:33:31;;;;;;;26.77;11.63;;;16.80;70.50;;;;;;1926317;73;21028;-60
2022/04/24 06:36:02;;;;;;;27.93;10.63;;;16.80;70.40;;;;;;1926262;74;21158;-60
2022/04/24 06:38:35;;;;;;;37.90;11.00;;;16.90;69.70;;;;;;1926195;74;21094;-60
2022/04/24 06:41:04;;;;;;;24.98;11.00;;;16.90;69.90;;;;;;1926201;73;21056;-61
2022/04/24 06:43:34;;;;;;;20.60;11.15;;;16.90;69.00;;;;;;1926353;74;21027;-60
2022/04/24 06:46:03;;;;;;;26.95;11.03;;;16.90;68.90;;;;;;1926197;74;21029;-60
2022/04/24 06:48:33;;;;;;;21.97;10.03;;;16.90;69.10;;;;;;1926174;74;21019;-60
2022/04/24 06:51:02;;;;;;;19.12;9.90;;;16.90;68.90;;;;;;1926342;74;21072;-60
2022/04/24 06:53:31;;;;;;;22.35;9.85;;;16.90;68.80;;;;;;1926364;74;21033;-60
2022/04/24 06:56:00;;;;;;;21.77;9.55;;;16.80;69.20;;;;;;1926216;74;21540;-60
2022/04/24 06:58:30;;;;;;;21.48;9.98;;;16.90;69.40;;;;;;1926070;74;21029;-60
2022/04/24 07:00:59;;;;;;;18.10;9.73;;;16.90;69.30;;;;;;1926173;74;21109;-60
2022/04/24 07:03:29;;;;;;;19.17;10.32;;;17.00;68.90;;;;;;1926074;74;21472;-60
2022/04/24 07:06:00;;;;;;;22.65;10.80;;;17.10;69.30;;;;;;1926097;74;21020;-60
2022/04/24 07:08:29;;;;;;;21.00;11.38;;;17.20;69.20;;;;;;1926129;74;21017;-60
2022/04/24 07:10:59;;;;;;;24.77;12.88;;;17.30;68.80;;;;;;1926109;74;21033;-60
2022/04/24 07:13:28;;;;;;;32.80;13.65;;;17.40;67.60;;;;;;1926204;73;21110;-60
2022/04/24 07:15:57;;;;;;;28.50;11.45;;;17.40;67.70;;;;;;1926198;74;21041;-60
2022/04/24 07:18:28;;;;;;;16.05;9.33;;;17.50;68.30;;;;;;1926123;74;21098;-60
2022/04/24 07:20:58;;;;;;;17.92;9.95;;;17.60;68.40;;;;;;1926095;74;21037;-60
2022/04/24 07:23:27;;;;;;;18.95;8.38;;;17.70;68.50;;;;;;1926096;74;21078;-60
2022/04/24 07:25:56;;;;;;;14.70;7.85;;;17.70;68.40;;;;;;1926150;73;21025;-60
2022/04/24 07:28:26;;;;;;;20.43;9.88;;;17.70;68.40;;;;;;1925984;74;21201;-60
2022/04/24 07:30:56;;;;;;;16.67;9.30;;;17.70;68.40;;;;;;1925868;73;21061;-60
2022/04/24 07:33:25;;;;;;;17.17;9.70;;;17.70;67.80;;;;;;1926342;74;21052;-60
2022/04/24 07:35:54;;;;;;;22.15;14.10;;;17.60;67.80;;;;;;1926182;73;21068;-60
2022/04/24 07:38:24;;;;;;;28.50;15.63;;;17.80;67.60;;;;;;1926193;73;21025;-60
2022/04/24 07:40:53;;;;;;;24.72;14.03;;;17.80;67.40;;;;;;1926228;74;21021;-60
2022/04/24 07:43:22;;;;;;;24.10;12.50;;;17.90;66.00;;;;;;1926341;74;21033;-60
2022/04/24 07:45:52;;;;;;;21.95;11.12;;;18.00;65.20;;;;;;1926274;74;20998;-60
2022/04/24 07:48:21;;;;;;;20.90;9.93;;;17.90;65.60;;;;;;1926280;74;21017;-60
2022/04/24 07:50:52;;;;;;;22.65;9.80;;;17.90;66.20;;;;;;1926186;74;21098;-60
2022/04/24 07:53:22;;;;;;;17.15;8.80;;;18.00;66.30;;;;;;1926279;74;21104;-60
2022/04/24 07:55:52;;;;;;;21.40;11.60;;;18.10;66.50;;;;;;1926198;74;21041;-60
2022/04/24 07:58:21;;;;;;;23.30;11.75;;;18.20;65.90;;;;;;1926129;74;21025;-60
2022/04/24 08:00:50;;;;;;;22.42;11.97;;;18.40;66.00;;;;;;1926293;74;21118;-60
2022/04/24 08:03:20;;;;;;;28.35;11.78;;;18.60;65.30;;;;;;1926201;74;20989;-60
2022/04/24 08:05:51;;;;;;;30.27;12.88;;;18.80;65.20;;;;;;1925926;73;21021;-61
2022/04/24 08:08:22;;;;;;;20.50;10.43;;;18.90;64.70;;;;;;1926270;73;21033;-60
2022/04/24 08:10:57;;;;;;;36.15;13.25;;;19.00;64.50;;;;;;1926447;74;21095;-60
2022/04/24 08:13:28;;;;;;;26.95;10.65;;;19.10;63.90;;;;;;1926305;74;21045;-60
2022/04/24 08:15:59;;;;;;;28.52;11.48;;;19.20;63.60;;;;;;1926392;74;21076;-60
2022/04/24 08:18:28;;;;;;;15.70;8.75;;;19.30;63.80;;;;;;1926293;74;21112;-60
2022/04/24 08:20:57;;;;;;;10.90;7.10;;;19.40;63.40;;;;;;1926284;74;21134;-60
2022/04/24 08:23:27;;;;;;;9.58;4.47;;;19.40;62.80;;;;;;1926437;74;21037;-60
2022/04/24 08:25:56;;;;;;;7.05;4.30;;;19.40;62.40;;;;;;1926321;74;21076;-60
2022/04/24 08:28:25;;;;;;;5.05;4.50;;;19.40;63.00;;;;;;1926228;74;21028;-59
2022/04/24 08:30:55;;;;;;;4.85;3.67;;;19.50;62.10;;;;;;1925907;73;21123;-60
2022/04/24 08:33:25;;;;;;;6.40;3.60;;;19.50;61.00;;;;;;1926284;74;21060;-60
2022/04/24 08:35:54;;;;;;;5.85;4.37;;;19.60;59.20;;;;;;1926174;74;21005;-60
2022/04/24 08:38:24;;;;;;;9.35;4.70;;;19.70;59.80;;;;;;1926178;74;21483;-59
2022/04/24 08:40:54;;;;;;;9.10;5.33;;;19.70;60.40;;;;;;1926253;74;21005;-60
2022/04/24 08:43:25;;;;;;;13.00;5.67;;;19.80;60.30;;;;;;1926257;74;21083;-60
2022/04/24 08:45:55;;;;;;;6.90;4.45;;;19.80;60.90;;;;;;1926161;74;21041;-60
2022/04/24 08:48:38;;;;;;;11.93;5.15;;;19.80;60.40;;;;;;1926290;74;21033;-60
2022/04/24 08:51:12;;;;;;;11.68;5.37;;;19.80;60.40;;;;;;1975838;72;21109;-60
2022/04/24 08:53:41;;;;;;;10.10;5.50;;;19.80;60.50;;;;;;1989527;72;21040;-60
2022/04/24 08:56:11;;;;;;;11.20;5.05;;;19.70;60.50;;;;;;1989509;72;21011;-60
2022/04/24 08:58:42;;;;;;;11.25;5.25;;;19.70;60.70;;;;;;1989574;72;21013;-60
2022/04/24 09:01:11;;;;;;;8.25;5.12;;;19.70;61.10;;;;;;1989651;72;21031;-60
2022/04/24 09:03:42;;;;;;;12.30;5.87;;;19.70;61.50;;;;;;1989654;72;21422;-60
2022/04/24 09:06:22;;;;;;;12.63;5.53;;;19.60;61.80;;;;;;1989577;72;21437;-60
2022/04/24 09:08:51;;;;;;;7.00;5.03;;;19.60;61.90;;;;;;1989555;72;21019;-60
2022/04/24 09:11:23;;;;;;;13.43;8.33;;;19.70;61.50;;;;;;1989513;72;21434;-59
2022/04/24 09:16:46;;;;;;;25.55;10.88;;;19.60;61.50;;;;;;1989349;72;21023;-59
2022/04/24 09:19:23;;;;;;;15.80;5.50;;;19.70;61.60;;;;;;1988370;72;21535;-60
2022/04/24 09:21:54;;;;;;;12.03;5.10;;;19.60;62.20;;;;;;1989419;72;21028;-60
2022/04/24 09:24:23;;;;;;;10.08;5.20;;;19.70;62.40;;;;;;1989274;72;21015;-60
2022/04/24 09:26:54;;;;;;;7.08;4.10;;;19.80;62.60;;;;;;1989414;72;21073;-60
2022/04/24 09:29:24;;;;;;;7.78;4.75;;;19.90;62.00;;;;;;1989542;72;20979;-60
2022/04/24 09:31:54;;;;;;;20.82;10.53;;;20.00;61.60;;;;;;1989520;72;20996;-59
2022/04/24 09:34:26;;;;;;;10.23;4.42;;;20.10;61.00;;;;;;1989502;72;21575;-60
2022/04/24 09:37:04;;;;;;;7.72;3.60;;;20.20;59.80;;;;;;1988980;71;21086;-59
2022/04/24 09:39:35;;;;;;;4.08;3.02;;;20.30;58.80;;;;;;1989482;72;21019;-60
2022/04/24 09:42:06;;;;;;;4.60;2.58;;;20.50;56.30;;;;;;1989518;72;21085;-60
2022/04/24 09:44:40;;;;;;;3.65;2.35;;;20.70;54.50;;;;;;1989480;72;21082;-59
2022/04/24 09:47:11;;;;;;;10.10;2.80;;;20.80;52.60;;;;;;1985904;72;21047;-60
2022/04/24 09:49:42;;;;;;;5.55;2.40;;;20.90;52.30;;;;;;1987765;72;20988;-59
2022/04/24 09:52:16;;;;;;;5.90;2.62;;;21.00;50.40;;;;;;1963072;72;21086;-60
2022/04/24 09:54:47;;;;;;;5.47;2.33;;;21.10;48.40;;;;;;1875163;75;21104;-59
2022/04/24 09:57:17;;;;;;;2.22;2.00;;;21.30;48.10;;;;;;1962915;72;21067;-59
2022/04/24 09:59:48;;;;;;;3.42;2.00;;;21.40;45.50;;;;;;1963085;73;21513;-60
2022/04/24 10:02:18;;;;;;;2.87;1.80;;;21.50;45.60;;;;;;1874937;75;21051;-59
2022/04/24 10:04:48;;;;;;;4.70;2.15;;;21.60;44.40;;;;;;1963136;72;21467;-60
2022/04/24 10:07:19;;;;;;;5.75;2.30;;;21.70;45.00;;;;;;1962994;72;21012;-59
2022/04/24 10:09:49;;;;;;;2.72;1.72;;;21.80;43.10;;;;;;1874934;76;21043;-60
2022/04/24 10:12:20;;;;;;;4.58;2.40;;;21.80;42.50;;;;;;1962953;72;20993;-60
2022/04/24 10:15:04;;;;;;;7.17;3.08;;;21.80;42.90;;;;;;1962671;72;21081;-60
2022/04/24 10:17:57;;;;;;;11.90;5.25;;;21.80;44.20;;;;;;1909160;74;21051;-59
2022/04/24 10:20:44;;;;;;;2.87;2.20;;;21.80;45.40;;;;;;1908414;75;21059;-59
2022/04/24 10:23:14;;;;;;;2.55;2.27;;;21.90;45.20;;;;;;1908629;74;21066;-59
2022/04/24 10:25:44;;;;;;;4.17;1.82;;;22.00;44.20;;;;;;1963032;72;20992;-59
2022/04/24 10:28:19;;;;;;;10.58;4.62;;;22.10;41.80;;;;;;1963232;73;21036;-59
2022/04/24 10:31:04;;;;;;;3.45;2.65;;;22.30;40.40;;;;;;1874864;75;21100;-59
2022/04/24 10:33:35;;;;;;;8.23;3.00;;;22.30;37.30;;;;;;1963065;72;21086;-59
2022/04/24 10:36:08;;;;;;;6.67;3.67;;;22.30;36.00;;;;;;1963156;72;21533;-59
2022/04/24 10:38:51;;;;;;;5.25;2.90;;;22.30;35.40;;;;;;1962452;72;21016;-59
2022/04/24 10:41:23;;;;;;;4.58;2.40;;;22.30;34.10;;;;;;1963072;72;21475;-59
2022/04/24 10:43:58;;;;;;;2.47;2.00;;;22.40;35.10;;;;;;1963069;72;21020;-59
2022/04/24 10:46:33;;;;;;;2.58;1.52;;;22.40;34.90;;;;;;1907848;75;21054;-59
2022/04/24 10:49:11;;;;;;;2.33;1.65;;;22.50;35.80;;;;;;1963169;73;21090;-59
2022/04/24 10:51:42;;;;;;;4.47;1.95;;;22.50;34.40;;;;;;1976932;71;21047;-59
2022/04/24 10:54:17;;;;;;;6.75;2.70;;;22.60;34.30;;;;;;1985598;72;21039;-59
2022/04/24 10:57:07;;;;;;;5.35;1.90;;;22.60;35.00;;;;;;1985663;72;21047;-59
2022/04/24 10:59:51;;;;;;;4.50;1.90;;;22.70;34.40;;;;;;1830301;77;21048;-59
2022/04/24 11:02:32;;;;;;;2.72;1.65;;;22.80;34.30;;;;;;1830671;77;21130;-59
2022/04/24 11:05:11;;;;;;;2.12;1.60;;;22.80;33.50;;;;;;1830264;78;21115;-59
2022/04/24 11:07:40;;;;;;;7.03;3.08;;;22.90;33.50;;;;;;1830449;78;21072;-60
2022/04/24 11:10:11;;;;;;;2.85;1.70;;;23.00;34.40;;;;;;1830424;77;21151;-59
2022/04/24 11:12:41;;;;;;;2.65;1.90;;;23.10;34.50;;;;;;1830316;77;21127;-60
2022/04/24 11:15:12;;;;;;;16.87;8.68;;;23.10;34.30;;;;;;1830318;77;21056;-60
2022/04/24 11:17:42;;;;;;;13.78;4.70;;;23.10;34.80;;;;;;1830420;77;21020;-60
2022/04/24 11:20:13;;;;;;;8.85;4.83;;;23.10;35.80;;;;;;1830216;78;21049;-60
2022/04/24 11:22:51;;;;;;;25.50;8.15;;;23.10;35.50;;;;;;1830335;76;21471;-60
2022/04/24 11:25:22;;;;;;;11.05;5.97;;;23.10;36.70;;;;;;1830304;78;21495;-61
2022/04/24 11:27:53;;;;;;;6.55;3.35;;;23.20;37.00;;;;;;1830304;77;21060;-61
2022/04/24 11:30:26;;;;;;;6.75;4.08;;;23.10;37.30;;;;;;1830389;77;21056;-61
2022/04/24 11:33:00;;;;;;;8.98;2.92;;;23.10;37.90;;;;;;1830531;78;21498;-60
2022/04/24 11:35:29;;;;;;;;;;;23.10;38.20;;;;;;1832967;78;21060;-60
2022/04/24 11:37:59;;;;;;;3.92;2.50;;;23.20;36.40;;;;;;1830273;77;20152;-60
2022/04/24 11:40:33;;;;;;;8.73;3.50;;;23.20;38.10;;;;;;1830323;77;21126;-60
2022/04/24 11:43:07;;;;;;;7.93;3.53;;;23.20;37.40;;;;;;1830663;78;21048;-60
2022/04/24 11:51:20;;;;;;;5.50;3.45;;;23.30;37.60;;;;;;1830497;78;21107;-61
2022/04/24 11:53:50;;;;;;;8.00;2.02;;;23.30;36.70;;;;;;1830520;77;21161;-61
2022/04/24 11:56:19;;;;;;;2.70;1.90;;;23.40;35.20;;;;;;1830377;78;21166;-60
2022/04/24 11:58:49;;;;;;;4.58;2.05;;;23.40;34.50;;;;;;1826157;78;21131;-60
2022/04/24 12:01:19;;;;;;;4.33;2.70;;;23.40;34.00;;;;;;1821939;77;21127;-60
2022/04/24 12:03:49;;;;;;;2.92;2.10;;;23.40;36.10;;;;;;1821964;79;21072;-61
2022/04/24 12:06:18;;;;;;;3.15;2.15;;;23.50;36.40;;;;;;1821856;79;21210;-61
2022/04/24 12:08:50;;;;;;;3.62;1.90;;;23.50;35.20;;;;;;1821963;77;21076;-61
2022/04/24 12:11:30;;;;;;;2.62;1.60;;;23.50;35.30;;;;;;1822007;77;21174;-61
2022/04/24 12:14:08;;;;;;;3.95;1.75;;;23.50;34.30;;;;;;1821778;79;21056;-60
2022/04/24 12:16:38;;;;;;;1.90;1.60;;;23.60;33.20;;;;;;1821805;77;21057;-61
2022/04/24 12:19:10;;;;;;;4.12;2.27;;;23.60;33.10;;;;;;1821799;77;21491;-60
2022/04/24 12:21:50;;;;;;;7.03;3.20;;;23.60;33.60;;;;;;1821928;77;21543;-60
2022/04/24 12:24:19;;;;;;;5.08;2.83;;;23.70;35.90;;;;;;1821895;79;21119;-60
2022/04/24 12:26:50;;;;;;;4.35;3.25;;;23.70;37.50;;;;;;1821804;77;21086;-60
2022/04/24 12:29:20;;;;;;;4.80;2.75;;;23.70;39.20;;;;;;1821809;79;21135;-60
2022/04/24 12:31:50;;;;;;;3.75;2.90;;;23.70;39.80;;;;;;1821963;77;21170;-60
2022/04/24 12:34:21;;;;;;;6.72;3.42;;;23.60;40.50;;;;;;1821834;79;21064;-60
2022/04/24 12:36:54;;;;;;;3.42;3.10;;;23.60;41.20;;;;;;1821857;79;21164;-60
2022/04/24 12:39:25;;;;;;;3.75;3.15;;;23.50;41.60;;;;;;1821939;78;21127;-60
2022/04/24 12:41:54;;;;;;;9.63;3.42;;;23.50;41.80;;;;;;1821868;79;21084;-60
2022/04/24 12:44:24;;;;;;;4.33;3.42;;;23.50;42.00;;;;;;1821908;78;21111;-60
2022/04/24 12:46:53;;;;;;;3.90;3.33;;;23.40;42.00;;;;;;1821862;79;21021;-60
2022/04/24 12:49:30;;;;;;;6.17;3.27;;;23.40;42.20;;;;;;1821867;79;21057;-60
2022/04/24 12:52:00;;;;;;;6.10;2.92;;;23.40;42.50;;;;;;1821982;78;21156;-59
2022/04/24 12:54:29;;;;;;;4.00;3.60;;;23.30;42.30;;;;;;1821963;77;21099;-60
2022/04/24 12:56:59;;;;;;;9.20;3.52;;;23.30;42.40;;;;;;1821985;78;21087;-60
2022/04/24 12:59:28;;;;;;;5.85;3.80;;;23.30;42.80;;;;;;1821820;77;21089;-60
2022/04/24 13:01:57;;;;;;;5.87;3.33;;;23.30;42.90;;;;;;1821802;79;21053;-59
2022/04/24 13:04:27;;;;;;;7.47;4.03;;;23.30;43.10;;;;;;1821769;78;21123;-60
2022/04/24 13:06:56;;;;;;;4.92;3.92;;;23.20;42.60;;;;;;1821939;78;21061;-60